sensor_id;sensor_type;location;lat;lon;timestamp;P1;durP1;ratioP1;P2;durP2;ratioP2
47796;SDS011;33558;50.922;14.068;2022-12-18T00:01:27;33.80;;;15.23;;
47796;SDS011;33558;50.922;14.068;2022-12-18T00:03:56;32.93;;;15.17;;
47796;SDS011;33558;50.922;14.068;2022-12-18T00:06:24;36.37;;;15.00;;
47796;SDS011;33558;50.922;14.068;2022-12-18T00:08:51;34.80;;;15.03;;
47796;SDS011;33558;50.922;14.068;2022-12-18T00:11:19;31.10;;;12.67;;
47796;SDS011;33558;50.922;14.068;2022-12-18T00:13:47;33.97;;;13.60;;
47796;SDS011;33558;50.922;14.068;2022-12-18T00:16:14;31.13;;;15.47;;
47796;SDS011;33558;50.922;14.068;2022-12-18T00:18:44;34.93;;;13.53;;
47796;SDS011;33558;50.922;14.068;2022-12-18T00:21:12;30.70;;;15.27;;
47796;SDS011;33558;50.922;14.068;2022-12-18T00:23:40;34.73;;;14.43;;
47796;SDS011;33558;50.922;14.068;2022-12-18T00:26:10;29.90;;;13.73;;
47796;SDS011;33558;50.922;14.068;2022-12-18T00:28:38;29.07;;;13.63;;
47796;SDS011;33558;50.922;14.068;2022-12-18T00:31:05;31.53;;;14.43;;
47796;SDS011;33558;50.922;14.068;2022-12-18T00:33:33;31.80;;;13.77;;
47796;SDS011;33558;50.922;14.068;2022-12-18T00:36:01;29.23;;;13.87;;
47796;SDS011;33558;50.922;14.068;2022-12-18T00:38:31;34.13;;;14.23;;
47796;SDS011;33558;50.922;14.068;2022-12-18T00:40:57;31.00;;;13.30;;
47796;SDS011;33558;50.922;14.068;2022-12-18T00:43:24;32.63;;;14.60;;
47796;SDS011;33558;50.922;14.068;2022-12-18T00:45:51;32.03;;;14.47;;
47796;SDS011;33558;50.922;14.068;2022-12-18T00:48:18;26.93;;;14.27;;
47796;SDS011;33558;50.922;14.068;2022-12-18T00:50:45;34.20;;;14.03;;
47796;SDS011;33558;50.922;14.068;2022-12-18T00:53:13;30.33;;;13.70;;
47796;SDS011;33558;50.922;14.068;2022-12-18T00:55:40;30.30;;;12.80;;
47796;SDS011;33558;50.922;14.068;2022-12-18T00:58:07;30.63;;;13.40;;
47796;SDS011;33558;50.922;14.068;2022-12-18T01:00:34;26.67;;;11.60;;
47796;SDS011;33558;50.922;14.068;2022-12-18T01:03:01;31.97;;;11.53;;
47796;SDS011;33558;50.922;14.068;2022-12-18T01:05:28;25.70;;;12.10;;
47796;SDS011;33558;50.922;14.068;2022-12-18T01:07:55;22.93;;;10.77;;
47796;SDS011;33558;50.922;14.068;2022-12-18T01:10:24;23.33;;;10.37;;
47796;SDS011;33558;50.922;14.068;2022-12-18T01:12:51;24.27;;;10.43;;
47796;SDS011;33558;50.922;14.068;2022-12-18T01:15:18;30.97;;;10.87;;
47796;SDS011;33558;50.922;14.068;2022-12-18T01:17:45;25.40;;;10.43;;
47796;SDS011;33558;50.922;14.068;2022-12-18T01:20:12;23.47;;;10.97;;
47796;SDS011;33558;50.922;14.068;2022-12-18T01:22:39;29.93;;;14.43;;
47796;SDS011;33558;50.922;14.068;2022-12-18T01:25:06;23.47;;;11.80;;
47796;SDS011;33558;50.922;14.068;2022-12-18T01:27:35;29.47;;;12.47;;
47796;SDS011;33558;50.922;14.068;2022-12-18T01:30:03;25.17;;;12.20;;
47796;SDS011;33558;50.922;14.068;2022-12-18T01:32:30;27.63;;;11.63;;
47796;SDS011;33558;50.922;14.068;2022-12-18T01:34:57;25.13;;;11.23;;
47796;SDS011;33558;50.922;14.068;2022-12-18T01:37:26;23.73;;;11.23;;
47796;SDS011;33558;50.922;14.068;2022-12-18T01:39:52;21.00;;;10.53;;
47796;SDS011;33558;50.922;14.068;2022-12-18T01:42:19;22.67;;;10.97;;
47796;SDS011;33558;50.922;14.068;2022-12-18T01:44:55;25.93;;;10.97;;
47796;SDS011;33558;50.922;14.068;2022-12-18T01:47:28;23.13;;;9.57;;
47796;SDS011;33558;50.922;14.068;2022-12-18T01:49:59;26.03;;;11.17;;
47796;SDS011;33558;50.922;14.068;2022-12-18T01:52:28;25.00;;;10.10;;
47796;SDS011;33558;50.922;14.068;2022-12-18T01:54:57;22.70;;;10.77;;
47796;SDS011;33558;50.922;14.068;2022-12-18T01:57:25;18.67;;;8.97;;
47796;SDS011;33558;50.922;14.068;2022-12-18T01:59:53;23.30;;;9.87;;
47796;SDS011;33558;50.922;14.068;2022-12-18T02:02:22;22.03;;;9.23;;
47796;SDS011;33558;50.922;14.068;2022-12-18T02:04:50;18.90;;;9.40;;
47796;SDS011;33558;50.922;14.068;2022-12-18T02:07:20;22.73;;;10.77;;
47796;SDS011;33558;50.922;14.068;2022-12-18T02:09:51;23.67;;;9.67;;
47796;SDS011;33558;50.922;14.068;2022-12-18T02:12:21;24.47;;;10.37;;
47796;SDS011;33558;50.922;14.068;2022-12-18T02:14:53;21.30;;;10.00;;
47796;SDS011;33558;50.922;14.068;2022-12-18T02:17:26;21.08;;;10.02;;
47796;SDS011;33558;50.922;14.068;2022-12-18T02:20:01;21.97;;;8.70;;
47796;SDS011;33558;50.922;14.068;2022-12-18T02:25:07;26.00;;;9.53;;
47796;SDS011;33558;50.922;14.068;2022-12-18T02:27:42;23.63;;;10.63;;
47796;SDS011;33558;50.922;14.068;2022-12-18T02:30:11;23.63;;;9.03;;
47796;SDS011;33558;50.922;14.068;2022-12-18T02:32:39;18.83;;;9.00;;
47796;SDS011;33558;50.922;14.068;2022-12-18T02:35:11;25.73;;;10.33;;
47796;SDS011;33558;50.922;14.068;2022-12-18T02:37:39;21.93;;;10.40;;
47796;SDS011;33558;50.922;14.068;2022-12-18T02:40:09;22.43;;;9.23;;
47796;SDS011;33558;50.922;14.068;2022-12-18T08:46:09;30.50;;;13.60;;
47796;SDS011;33558;50.922;14.068;2022-12-18T08:48:36;31.37;;;12.27;;
47796;SDS011;33558;50.922;14.068;2022-12-18T08:51:03;29.13;;;13.57;;
47796;SDS011;33558;50.922;14.068;2022-12-18T08:53:30;29.23;;;13.37;;
47796;SDS011;33558;50.922;14.068;2022-12-18T08:55:57;31.47;;;13.10;;
47796;SDS011;33558;50.922;14.068;2022-12-18T08:58:23;32.10;;;14.50;;
47796;SDS011;33558;50.922;14.068;2022-12-18T09:00:50;36.33;;;14.70;;
47796;SDS011;33558;50.922;14.068;2022-12-18T09:03:19;32.77;;;14.23;;
47796;SDS011;33558;50.922;14.068;2022-12-18T09:05:47;33.60;;;13.87;;
47796;SDS011;33558;50.922;14.068;2022-12-18T09:08:14;36.67;;;15.60;;
47796;SDS011;33558;50.922;14.068;2022-12-18T09:10:41;39.00;;;17.40;;
47796;SDS011;33558;50.922;14.068;2022-12-18T09:13:09;35.30;;;16.63;;
47796;SDS011;33558;50.922;14.068;2022-12-18T09:15:39;46.37;;;18.00;;
47796;SDS011;33558;50.922;14.068;2022-12-18T09:18:06;45.10;;;18.70;;
47796;SDS011;33558;50.922;14.068;2022-12-18T09:20:35;49.07;;;20.67;;
47796;SDS011;33558;50.922;14.068;2022-12-18T09:23:02;40.47;;;17.33;;
47796;SDS011;33558;50.922;14.068;2022-12-18T09:25:29;39.83;;;17.57;;
47796;SDS011;33558;50.922;14.068;2022-12-18T09:27:58;45.07;;;18.23;;
47796;SDS011;33558;50.922;14.068;2022-12-18T09:30:25;37.33;;;16.20;;
47796;SDS011;33558;50.922;14.068;2022-12-18T09:32:52;42.13;;;17.70;;
47796;SDS011;33558;50.922;14.068;2022-12-18T09:35:20;36.87;;;16.83;;
47796;SDS011;33558;50.922;14.068;2022-12-18T09:37:48;41.30;;;16.70;;
47796;SDS011;33558;50.922;14.068;2022-12-18T09:40:15;37.03;;;16.80;;
47796;SDS011;33558;50.922;14.068;2022-12-18T09:42:43;37.23;;;17.13;;
47796;SDS011;33558;50.922;14.068;2022-12-18T09:45:12;34.23;;;17.37;;
47796;SDS011;33558;50.922;14.068;2022-12-18T09:47:39;41.57;;;16.80;;
47796;SDS011;33558;50.922;14.068;2022-12-18T09:50:14;37.17;;;16.70;;
47796;SDS011;33558;50.922;14.068;2022-12-18T09:52:48;34.20;;;14.97;;
47796;SDS011;33558;50.922;14.068;2022-12-18T09:55:19;33.03;;;16.37;;
47796;SDS011;33558;50.922;14.068;2022-12-18T09:57:49;33.67;;;17.67;;
47796;SDS011;33558;50.922;14.068;2022-12-18T10:00:19;32.33;;;15.33;;
47796;SDS011;33558;50.922;14.068;2022-12-18T10:02:47;34.23;;;15.17;;
47796;SDS011;33558;50.922;14.068;2022-12-18T10:05:15;34.37;;;15.40;;
47796;SDS011;33558;50.922;14.068;2022-12-18T10:07:46;34.30;;;15.87;;
47796;SDS011;33558;50.922;14.068;2022-12-18T10:10:31;36.13;;;14.30;;
47796;SDS011;33558;50.922;14.068;2022-12-18T10:13:05;39.37;;;15.30;;
47796;SDS011;33558;50.922;14.068;2022-12-18T10:15:40;34.83;;;16.50;;
47796;SDS011;33558;50.922;14.068;2022-12-18T10:18:15;34.77;;;16.03;;
47796;SDS011;33558;50.922;14.068;2022-12-18T10:20:49;43.30;;;16.57;;
47796;SDS011;33558;50.922;14.068;2022-12-18T10:23:20;36.50;;;16.70;;
47796;SDS011;33558;50.922;14.068;2022-12-18T10:25:51;38.77;;;15.30;;
47796;SDS011;33558;50.922;14.068;2022-12-18T10:28:21;41.70;;;17.90;;
47796;SDS011;33558;50.922;14.068;2022-12-18T10:30:48;39.33;;;16.43;;
47796;SDS011;33558;50.922;14.068;2022-12-18T10:33:16;34.17;;;15.30;;
47796;SDS011;33558;50.922;14.068;2022-12-18T10:35:43;34.10;;;16.70;;
47796;SDS011;33558;50.922;14.068;2022-12-18T10:38:23;40.13;;;16.37;;
47796;SDS011;33558;50.922;14.068;2022-12-18T10:40:52;36.67;;;15.93;;
47796;SDS011;33558;50.922;14.068;2022-12-18T10:43:22;34.43;;;15.50;;
47796;SDS011;33558;50.922;14.068;2022-12-18T10:46:04;32.63;;;15.03;;
47796;SDS011;33558;50.922;14.068;2022-12-18T10:48:40;35.27;;;16.40;;
47796;SDS011;33558;50.922;14.068;2022-12-18T10:51:19;36.83;;;15.57;;
47796;SDS011;33558;50.922;14.068;2022-12-18T10:53:51;43.07;;;16.77;;
47796;SDS011;33558;50.922;14.068;2022-12-18T10:56:19;38.07;;;15.87;;
47796;SDS011;33558;50.922;14.068;2022-12-18T10:58:54;37.27;;;16.73;;
47796;SDS011;33558;50.922;14.068;2022-12-18T11:01:22;35.27;;;15.90;;
47796;SDS011;33558;50.922;14.068;2022-12-18T11:03:58;33.17;;;15.83;;
47796;SDS011;33558;50.922;14.068;2022-12-18T11:06:26;32.80;;;15.30;;
47796;SDS011;33558;50.922;14.068;2022-12-18T11:08:58;35.97;;;16.40;;
47796;SDS011;33558;50.922;14.068;2022-12-18T11:11:26;33.23;;;16.43;;
47796;SDS011;33558;50.922;14.068;2022-12-18T11:13:56;33.37;;;15.70;;
47796;SDS011;33558;50.922;14.068;2022-12-18T11:16:25;30.13;;;14.30;;
47796;SDS011;33558;50.922;14.068;2022-12-18T11:18:52;38.73;;;16.00;;
47796;SDS011;33558;50.922;14.068;2022-12-18T11:21:19;33.40;;;16.17;;
47796;SDS011;33558;50.922;14.068;2022-12-18T11:23:47;33.43;;;15.70;;
47796;SDS011;33558;50.922;14.068;2022-12-18T11:26:18;32.90;;;16.30;;
47796;SDS011;33558;50.922;14.068;2022-12-18T11:28:46;34.23;;;14.80;;
47796;SDS011;33558;50.922;14.068;2022-12-18T11:31:18;34.67;;;15.23;;
47796;SDS011;33558;50.922;14.068;2022-12-18T11:33:49;31.07;;;14.03;;
47796;SDS011;33558;50.922;14.068;2022-12-18T11:36:25;30.13;;;15.03;;
47796;SDS011;33558;50.922;14.068;2022-12-18T11:38:55;32.17;;;14.37;;
47796;SDS011;33558;50.922;14.068;2022-12-18T11:41:27;31.13;;;13.80;;
47796;SDS011;33558;50.922;14.068;2022-12-18T11:44:11;32.40;;;14.10;;
47796;SDS011;33558;50.922;14.068;2022-12-18T11:46:42;30.13;;;13.23;;
47796;SDS011;33558;50.922;14.068;2022-12-18T11:49:14;25.80;;;12.40;;
47796;SDS011;33558;50.922;14.068;2022-12-18T11:51:48;29.53;;;12.67;;
47796;SDS011;33558;50.922;14.068;2022-12-18T11:54:18;29.17;;;15.10;;
47796;SDS011;33558;50.922;14.068;2022-12-18T11:56:47;24.73;;;11.43;;
47796;SDS011;33558;50.922;14.068;2022-12-18T11:59:17;29.53;;;12.07;;
47796;SDS011;33558;50.922;14.068;2022-12-18T12:01:48;31.73;;;13.50;;
47796;SDS011;33558;50.922;14.068;2022-12-18T12:04:26;28.53;;;12.77;;
47796;SDS011;33558;50.922;14.068;2022-12-18T12:07:17;25.93;;;12.37;;
47796;SDS011;33558;50.922;14.068;2022-12-18T12:09:52;25.60;;;12.47;;
47796;SDS011;33558;50.922;14.068;2022-12-18T12:12:30;20.97;;;10.67;;
47796;SDS011;33558;50.922;14.068;2022-12-18T12:15:13;29.33;;;13.77;;
47796;SDS011;33558;50.922;14.068;2022-12-18T12:17:47;29.60;;;11.90;;
47796;SDS011;33558;50.922;14.068;2022-12-18T12:20:18;25.33;;;12.40;;
47796;SDS011;33558;50.922;14.068;2022-12-18T12:22:49;26.77;;;13.70;;
47796;SDS011;33558;50.922;14.068;2022-12-18T12:25:25;30.27;;;14.53;;
47796;SDS011;33558;50.922;14.068;2022-12-18T12:30:29;21.83;;;11.40;;
47796;SDS011;33558;50.922;14.068;2022-12-18T12:33:02;27.30;;;11.27;;
47796;SDS011;33558;50.922;14.068;2022-12-18T12:35:38;29.17;;;13.63;;
47796;SDS011;33558;50.922;14.068;2022-12-18T12:38:11;27.13;;;12.23;;
47796;SDS011;33558;50.922;14.068;2022-12-18T12:40:42;27.50;;;13.07;;
47796;SDS011;33558;50.922;14.068;2022-12-18T12:43:15;30.70;;;12.67;;
47796;SDS011;33558;50.922;14.068;2022-12-18T12:45:46;28.27;;;13.45;;
47796;SDS011;33558;50.922;14.068;2022-12-18T12:48:16;30.47;;;13.27;;
47796;SDS011;33558;50.922;14.068;2022-12-18T12:50:47;22.90;;;11.10;;
47796;SDS011;33558;50.922;14.068;2022-12-18T12:53:19;28.40;;;13.93;;
47796;SDS011;33558;50.922;14.068;2022-12-18T12:55:50;24.70;;;11.85;;
47796;SDS011;33558;50.922;14.068;2022-12-18T12:58:19;25.50;;;12.47;;
47796;SDS011;33558;50.922;14.068;2022-12-18T13:00:54;30.90;;;12.50;;
47796;SDS011;33558;50.922;14.068;2022-12-18T13:03:29;27.27;;;12.03;;
47796;SDS011;33558;50.922;14.068;2022-12-18T13:06:02;23.20;;;10.23;;
47796;SDS011;33558;50.922;14.068;2022-12-18T13:08:34;20.13;;;9.30;;
47796;SDS011;33558;50.922;14.068;2022-12-18T13:11:28;24.83;;;11.33;;
47796;SDS011;33558;50.922;14.068;2022-12-18T13:14:21;23.23;;;9.20;;
47796;SDS011;33558;50.922;14.068;2022-12-18T13:16:50;22.27;;;10.13;;
47796;SDS011;33558;50.922;14.068;2022-12-18T13:19:23;20.37;;;10.50;;
47796;SDS011;33558;50.922;14.068;2022-12-18T13:21:53;22.93;;;10.80;;
47796;SDS011;33558;50.922;14.068;2022-12-18T13:24:23;20.33;;;9.67;;
47796;SDS011;33558;50.922;14.068;2022-12-18T13:26:52;22.57;;;10.20;;
47796;SDS011;33558;50.922;14.068;2022-12-18T13:29:43;25.53;;;11.40;;
47796;SDS011;33558;50.922;14.068;2022-12-18T13:32:21;24.53;;;10.77;;
47796;SDS011;33558;50.922;14.068;2022-12-18T13:34:49;23.17;;;12.30;;
47796;SDS011;33558;50.922;14.068;2022-12-18T13:37:54;21.67;;;10.37;;
47796;SDS011;33558;50.922;14.068;2022-12-18T13:43:28;30.17;;;13.47;;
47796;SDS011;33558;50.922;14.068;2022-12-18T13:46:06;25.67;;;11.77;;
47796;SDS011;33558;50.922;14.068;2022-12-18T13:48:49;28.60;;;12.50;;
47796;SDS011;33558;50.922;14.068;2022-12-18T13:51:17;26.03;;;12.73;;
47796;SDS011;33558;50.922;14.068;2022-12-18T13:53:47;26.10;;;11.53;;
47796;SDS011;33558;50.922;14.068;2022-12-18T13:56:16;27.27;;;12.80;;
47796;SDS011;33558;50.922;14.068;2022-12-18T13:58:43;27.33;;;12.37;;
47796;SDS011;33558;50.922;14.068;2022-12-18T14:01:22;27.87;;;12.83;;
47796;SDS011;33558;50.922;14.068;2022-12-18T14:03:49;28.03;;;12.80;;
47796;SDS011;33558;50.922;14.068;2022-12-18T14:06:16;27.80;;;12.07;;
47796;SDS011;33558;50.922;14.068;2022-12-18T14:08:43;29.77;;;13.10;;
47796;SDS011;33558;50.922;14.068;2022-12-18T14:11:18;27.80;;;13.77;;
47796;SDS011;33558;50.922;14.068;2022-12-18T14:13:46;33.83;;;16.37;;
47796;SDS011;33558;50.922;14.068;2022-12-18T14:16:14;28.53;;;13.27;;
47796;SDS011;33558;50.922;14.068;2022-12-18T14:18:44;26.97;;;13.10;;
47796;SDS011;33558;50.922;14.068;2022-12-18T14:21:19;24.97;;;11.53;;
47796;SDS011;33558;50.922;14.068;2022-12-18T14:23:48;30.27;;;13.53;;
47796;SDS011;33558;50.922;14.068;2022-12-18T14:26:22;29.70;;;13.77;;
47796;SDS011;33558;50.922;14.068;2022-12-18T14:28:53;24.90;;;11.33;;
47796;SDS011;33558;50.922;14.068;2022-12-18T14:31:23;27.63;;;13.43;;
47796;SDS011;33558;50.922;14.068;2022-12-18T14:33:52;24.77;;;12.00;;
47796;SDS011;33558;50.922;14.068;2022-12-18T14:36:20;22.90;;;12.33;;
47796;SDS011;33558;50.922;14.068;2022-12-18T14:38:49;29.87;;;13.20;;
47796;SDS011;33558;50.922;14.068;2022-12-18T14:41:17;29.73;;;14.90;;
